Time;durP1;ratioP1;P1;durP2;ratioP2;P2;SDS_P1;SDS_P2;PMS_P1;PMS_P2;Temp;Humidity;BMP_temperature;BMP_pressure;BME280_temperature;BME280_humidity;BME280_pressure;Samples;Min_cycle;Max_cycle;Signal;HPM_P1;HPM_P2
2022/10/22 00:01:29;;;;;;;16.83;15.23;;;13.00;99.90;;;;;;4917855;29;20476;-77
2022/10/22 00:03:57;;;;;;;17.17;15.63;;;13.10;99.90;;;;;;4916691;29;20824;-78
2022/10/22 00:06:25;;;;;;;18.00;16.37;;;13.00;99.90;;;;;;4917943;29;20437;-78
2022/10/22 00:08:53;;;;;;;17.57;15.97;;;12.90;99.90;;;;;;4917888;29;20440;-78
2022/10/22 00:11:22;;;;;;;17.20;15.50;;;13.00;99.90;;;;;;4917282;29;20572;-78
2022/10/22 00:13:50;;;;;;;17.63;15.90;;;13.00;99.90;;;;;;4916480;29;20441;-77
2022/10/22 00:16:18;;;;;;;17.57;15.87;;;13.00;99.90;;;;;;4916398;29;20460;-78
2022/10/22 00:18:47;;;;;;;16.30;14.77;;;12.90;99.90;;;;;;4916441;29;20452;-78
2022/10/22 00:21:15;;;;;;;17.93;16.20;;;12.90;99.90;;;;;;4916291;29;20480;-78
2022/10/22 00:23:44;;;;;;;18.83;17.03;;;12.90;99.90;;;;;;4916535;29;20508;-78
2022/10/22 00:26:12;;;;;;;15.47;14.07;;;12.90;99.90;;;;;;4916548;29;20452;-77
2022/10/22 00:28:40;;;;;;;19.50;17.70;;;12.90;99.90;;;;;;4917755;29;20812;-78
2022/10/22 00:31:08;;;;;;;18.43;16.73;;;12.90;99.90;;;;;;4918167;29;20977;-78
2022/10/22 00:33:36;;;;;;;19.77;18.00;;;12.80;99.90;;;;;;4918649;29;20453;-78
2022/10/22 00:36:06;;;;;;;17.43;15.63;;;12.80;99.90;;;;;;4921016;29;21006;-77
2022/10/22 00:38:34;;;;;;;17.40;15.90;;;12.80;99.90;;;;;;4919924;29;20818;-77
2022/10/22 00:41:03;;;;;;;18.87;16.87;;;12.70;99.90;;;;;;4917880;29;20536;-78
2022/10/22 00:43:31;;;;;;;20.97;19.03;;;12.80;99.90;;;;;;4916569;29;20946;-78
2022/10/22 00:45:59;;;;;;;18.20;16.50;;;12.80;99.90;;;;;;4916085;29;20978;-78
2022/10/22 00:48:29;;;;;;;17.77;16.00;;;12.70;99.90;;;;;;4917275;29;20942;-78
2022/10/22 00:51:01;;;;;;;18.47;16.80;;;12.70;99.90;;;;;;4916144;29;20484;-78
2022/10/22 00:53:36;;;;;;;17.23;15.73;;;12.70;99.90;;;;;;4916106;29;20464;-78
2022/10/22 00:56:05;;;;;;;17.20;15.70;;;12.70;99.90;;;;;;4915964;29;20456;-78
2022/10/22 00:58:37;;;;;;;19.67;17.77;;;12.60;99.90;;;;;;4917312;29;20478;-78
2022/10/22 01:01:06;;;;;;;17.80;16.20;;;12.60;99.90;;;;;;4915823;29;20476;-78
2022/10/22 01:03:34;;;;;;;17.53;15.93;;;12.60;99.90;;;;;;4915905;29;20497;-78
2022/10/22 01:06:05;;;;;;;20.03;18.23;;;12.60;99.90;;;;;;4917156;29;20496;-78
2022/10/22 01:08:42;;;;;;;21.03;19.13;;;12.60;99.90;;;;;;4915938;29;20459;-78
2022/10/22 01:11:18;;;;;;;19.40;17.60;;;12.60;99.90;;;;;;4919766;29;20468;-78
2022/10/22 01:13:56;;;;;;;19.80;17.90;;;12.50;99.90;;;;;;4921286;29;20519;-78
2022/10/22 01:16:34;;;;;;;19.03;17.27;;;12.60;99.90;;;;;;4919730;29;20450;-77
2022/10/22 01:19:21;;;;;;;18.93;16.90;;;12.50;99.90;;;;;;4920918;29;20425;-78
2022/10/22 01:21:55;;;;;;;20.50;18.70;;;12.50;99.90;;;;;;4921145;29;20467;-77
2022/10/22 01:24:50;;;;;;;19.13;17.23;;;12.50;99.90;;;;;;4919584;29;20449;-78
2022/10/22 01:27:31;;;;;;;21.13;19.00;;;12.50;99.90;;;;;;4919668;29;20987;-78
2022/10/22 01:30:05;;;;;;;20.10;18.37;;;12.50;99.90;;;;;;4919450;29;20479;-78
2022/10/22 01:32:39;;;;;;;20.20;18.30;;;12.50;99.90;;;;;;4920654;29;20432;-78
2022/10/22 01:35:11;;;;;;;20.50;18.60;;;12.50;99.90;;;;;;4919688;29;20511;-78
2022/10/22 01:37:43;;;;;;;19.00;17.30;;;12.50;99.90;;;;;;4919254;29;20978;-77
2022/10/22 01:40:13;;;;;;;19.20;17.33;;;12.50;99.90;;;;;;4920456;29;20472;-78
2022/10/22 01:42:41;;;;;;;20.37;18.20;;;12.50;99.90;;;;;;4919388;29;20457;-78
2022/10/22 01:45:14;;;;;;;18.40;16.70;;;12.40;99.90;;;;;;4920422;29;20439;-78
2022/10/22 01:47:53;;;;;;;20.40;18.57;;;12.40;99.90;;;;;;4919113;29;20456;-78
2022/10/22 01:50:48;;;;;;;18.23;16.63;;;12.40;99.90;;;;;;4919297;29;20475;-78
2022/10/22 01:53:25;;;;;;;19.97;18.23;;;12.40;99.90;;;;;;4920868;29;20436;-78
2022/10/22 01:56:06;;;;;;;19.30;17.60;;;12.40;99.90;;;;;;4918949;29;20527;-78
2022/10/22 01:58:44;;;;;;;19.53;17.63;;;12.40;99.90;;;;;;4919098;29;20990;-78
2022/10/22 02:01:24;;;;;;;19.40;17.50;;;12.40;99.90;;;;;;4920671;29;20503;-78
2022/10/22 02:03:59;;;;;;;19.00;17.37;;;12.40;99.90;;;;;;4920772;29;20436;-78
2022/10/22 02:06:30;;;;;;;20.00;18.20;;;12.30;99.90;;;;;;4919087;29;20837;-78
2022/10/22 02:09:00;;;;;;;18.17;16.67;;;12.30;99.90;;;;;;4919197;29;20453;-78
2022/10/22 02:11:28;;;;;;;19.27;17.30;;;12.30;99.90;;;;;;4918645;29;20583;-78
2022/10/22 02:14:01;;;;;;;20.63;18.73;;;12.20;99.90;;;;;;4920286;29;20456;-78
2022/10/22 02:16:34;;;;;;;19.33;17.40;;;12.30;99.90;;;;;;4918756;29;20456;-78
2022/10/22 02:19:07;;;;;;;20.43;18.33;;;12.30;99.90;;;;;;4918797;29;20468;-78
2022/10/22 02:21:35;;;;;;;22.63;20.43;;;12.20;99.90;;;;;;4918580;29;20464;-77
2022/10/22 02:24:05;;;;;;;20.40;18.67;;;12.20;99.90;;;;;;4918476;29;20460;-78
2022/10/22 02:26:35;;;;;;;18.80;16.97;;;12.20;99.90;;;;;;4918418;29;20933;-78
2022/10/22 02:29:08;;;;;;;20.33;18.43;;;12.10;99.90;;;;;;4920028;29;20429;-78
2022/10/22 02:31:40;;;;;;;19.13;17.30;;;12.10;99.90;;;;;;4919677;29;20471;-78
2022/10/22 02:34:13;;;;;;;20.83;18.90;;;12.20;99.90;;;;;;4920101;29;20445;-78
2022/10/22 02:36:43;;;;;;;21.87;19.97;;;12.10;99.90;;;;;;4919102;29;20459;-78
2022/10/22 02:39:18;;;;;;;21.60;19.60;;;12.10;99.90;;;;;;4920069;29;20503;-77
2022/10/22 02:41:47;;;;;;;21.70;19.50;;;12.10;99.90;;;;;;4918769;29;20617;-78
2022/10/22 02:44:16;;;;;;;21.57;19.57;;;12.10;99.90;;;;;;4919981;29;20456;-78
2022/10/22 02:46:45;;;;;;;23.60;21.30;;;12.10;99.90;;;;;;4918305;29;20958;-77
2022/10/22 02:49:13;;;;;;;22.57;20.67;;;12.10;99.90;;;;;;4918254;29;20484;-78
2022/10/22 02:51:41;;;;;;;22.83;20.63;;;12.10;99.90;;;;;;4919543;29;20523;-77
2022/10/22 02:54:09;;;;;;;23.90;21.77;;;12.10;99.90;;;;;;4918255;29;20461;-77
2022/10/22 02:56:37;;;;;;;23.37;21.30;;;12.10;99.90;;;;;;4917942;29;20460;-77
2022/10/22 02:59:06;;;;;;;23.00;20.77;;;12.10;99.90;;;;;;4918047;29;20566;-78
2022/10/22 03:01:34;;;;;;;24.83;22.37;;;12.10;99.90;;;;;;4918990;29;20468;-78
2022/10/22 03:04:04;;;;;;;23.63;21.37;;;12.20;99.90;;;;;;4919277;29;20440;-78
2022/10/22 03:06:32;;;;;;;24.10;22.00;;;12.20;99.90;;;;;;4919173;29;20447;-78
2022/10/22 03:09:00;;;;;;;24.73;22.33;;;12.20;99.90;;;;;;4917887;29;20822;-78
2022/10/22 03:11:28;;;;;;;24.17;21.87;;;12.20;99.90;;;;;;4917667;29;20479;-78
2022/10/22 03:13:56;;;;;;;23.70;21.50;;;12.20;99.90;;;;;;4917825;29;20463;-76
2022/10/22 03:16:24;;;;;;;25.80;23.50;;;12.20;99.90;;;;;;4917773;29;20445;-77
2022/10/22 03:18:52;;;;;;;26.03;23.63;;;12.20;99.90;;;;;;4917655;29;20476;-78
2022/10/22 03:21:29;;;;;;;32.13;29.00;;;12.20;99.90;;;;;;4917394;29;20471;-78
2022/10/22 03:23:59;;;;;;;32.53;29.53;;;12.20;99.90;;;;;;4917456;29;20900;-78
2022/10/22 03:26:27;;;;;;;28.60;25.90;;;12.20;99.90;;;;;;4917306;29;20452;-78
2022/10/22 03:28:55;;;;;;;28.23;25.43;;;12.20;99.90;;;;;;4918508;29;20456;-78
2022/10/22 03:31:23;;;;;;;27.00;24.20;;;12.20;99.90;;;;;;4917039;29;20544;-77
2022/10/22 03:33:51;;;;;;;28.40;25.63;;;12.20;99.90;;;;;;4917123;29;20487;-77
2022/10/22 03:36:19;;;;;;;29.30;26.50;;;12.20;99.90;;;;;;4918840;29;20451;-78
2022/10/22 03:38:49;;;;;;;28.90;26.10;;;12.20;99.90;;;;;;4917167;29;20472;-78
2022/10/22 03:41:17;;;;;;;28.03;25.40;;;12.20;99.90;;;;;;4918385;29;20538;-78
2022/10/22 03:43:48;;;;;;;28.40;25.67;;;12.20;99.90;;;;;;4918503;29;20456;-78
2022/10/22 03:46:16;;;;;;;26.73;24.23;;;12.20;99.90;;;;;;4918553;29;20496;-78
2022/10/22 03:48:44;;;;;;;27.87;25.10;;;12.20;99.90;;;;;;4916984;29;20969;-77
2022/10/22 03:51:13;;;;;;;28.30;25.60;;;12.30;99.90;;;;;;4916880;29;20488;-78
2022/10/22 03:53:41;;;;;;;28.63;25.70;;;12.30;99.90;;;;;;4916781;29;20492;-78
2022/10/22 03:56:11;;;;;;;29.03;26.13;;;12.30;99.90;;;;;;4916766;29;20978;-78
2022/10/22 03:58:40;;;;;;;29.23;26.57;;;12.30;99.90;;;;;;4916714;29;20551;-78
2022/10/22 04:01:10;;;;;;;28.70;26.10;;;12.40;99.90;;;;;;4916671;29;20510;-78
2022/10/22 04:03:38;;;;;;;26.10;23.60;;;12.40;99.90;;;;;;4918038;29;20456;-78
2022/10/22 04:06:08;;;;;;;26.67;24.07;;;12.40;99.90;;;;;;4916654;29;20511;-78
2022/10/22 04:08:38;;;;;;;29.40;26.70;;;12.40;99.90;;;;;;4920332;29;20509;-77
2022/10/22 04:11:07;;;;;;;29.07;25.60;;;12.40;99.90;;;;;;4919248;29;20567;-77
2022/10/22 04:13:37;;;;;;;25.30;22.90;;;12.40;99.90;;;;;;4917853;29;20464;-77
2022/10/22 04:16:09;;;;;;;27.10;24.40;;;12.40;99.90;;;;;;4918791;29;20501;-78
2022/10/22 04:18:38;;;;;;;27.13;24.53;;;12.30;99.90;;;;;;4917038;29;20986;-78
2022/10/22 04:21:07;;;;;;;26.63;24.13;;;12.40;99.90;;;;;;4917896;29;20466;-78
2022/10/22 04:23:35;;;;;;;26.80;24.20;;;12.30;99.90;;;;;;4916576;29;20819;-78
2022/10/22 04:26:06;;;;;;;26.50;24.00;;;12.30;99.90;;;;;;4917671;29;20440;-78
2022/10/22 04:28:35;;;;;;;28.30;25.60;;;12.30;99.90;;;;;;4917921;29;20439;-78
2022/10/22 04:31:08;;;;;;;27.30;24.77;;;12.30;99.90;;;;;;4917778;29;20791;-78
2022/10/22 04:33:36;;;;;;;26.77;24.27;;;12.30;99.90;;;;;;4916321;29;20927;-78
2022/10/22 04:36:10;;;;;;;27.50;24.90;;;12.30;99.90;;;;;;4918017;29;20449;-78
2022/10/22 04:38:38;;;;;;;26.43;23.77;;;12.30;99.90;;;;;;4916107;29;20472;-78
2022/10/22 04:41:11;;;;;;;28.90;26.17;;;12.30;99.90;;;;;;4917308;29;20502;-78
2022/10/22 04:43:41;;;;;;;28.73;26.03;;;12.30;99.90;;;;;;4917027;29;20955;-78
2022/10/22 04:46:09;;;;;;;29.23;26.23;;;12.30;99.90;;;;;;4917628;29;20444;-78
2022/10/22 04:48:38;;;;;;;29.20;26.17;;;12.30;99.90;;;;;;4915984;29;20515;-77
2022/10/22 04:51:07;;;;;;;26.93;24.37;;;12.30;99.90;;;;;;4917435;29;20472;-78
2022/10/22 04:53:36;;;;;;;27.60;25.07;;;12.30;99.90;;;;;;4916014;29;20452;-78
2022/10/22 04:56:09;;;;;;;29.23;26.57;;;12.30;99.90;;;;;;4917118;29;20452;-78
2022/10/22 04:58:37;;;;;;;26.57;24.00;;;12.30;99.90;;;;;;4917061;29;20966;-78
2022/10/22 05:01:14;;;;;;;29.67;26.67;;;12.30;99.90;;;;;;4917044;29;20516;-78
2022/10/22 05:03:43;;;;;;;27.83;25.03;;;12.30;99.90;;;;;;4915859;29;20459;-77
2022/10/22 05:06:12;;;;;;;28.03;25.43;;;12.30;99.90;;;;;;4917036;29;20445;-78
2022/10/22 05:08:42;;;;;;;29.90;26.80;;;12.30;99.90;;;;;;4915914;29;20472;-78
2022/10/22 05:11:11;;;;;;;28.80;25.90;;;12.20;99.90;;;;;;4915790;29;20468;-77
2022/10/22 05:13:40;;;;;;;28.27;25.37;;;12.30;99.90;;;;;;4915842;29;20448;-78
2022/10/22 05:16:08;;;;;;;27.13;24.33;;;12.20;99.90;;;;;;4917046;29;20444;-78
2022/10/22 05:18:39;;;;;;;29.80;26.90;;;12.30;99.90;;;;;;4915659;29;20449;-78
2022/10/22 05:21:10;;;;;;;26.77;24.27;;;12.30;99.90;;;;;;4917072;29;20464;-78
2022/10/22 05:23:38;;;;;;;27.70;25.20;;;12.20;99.90;;;;;;4917028;29;20432;-78
2022/10/22 05:26:09;;;;;;;43.83;39.10;;;12.20;99.90;;;;;;4917142;29;20452;-77
2022/10/22 05:28:37;;;;;;;33.00;29.60;;;12.20;99.90;;;;;;4915933;29;20460;-78
2022/10/22 05:31:06;;;;;;;34.17;30.57;;;12.20;99.90;;;;;;4915590;29;20644;-78
2022/10/22 05:33:35;;;;;;;32.13;28.70;;;12.20;99.90;;;;;;4916887;29;20452;-78
2022/10/22 05:36:06;;;;;;;31.50;28.40;;;12.20;99.90;;;;;;4915624;29;20444;-78
2022/10/22 05:38:35;;;;;;;31.87;28.73;;;12.20;99.90;;;;;;4915648;29;20452;-77
2022/10/22 05:41:05;;;;;;;27.27;24.67;;;12.10;99.90;;;;;;4916949;29;20492;-77
2022/10/22 05:43:34;;;;;;;30.10;27.30;;;12.10;99.90;;;;;;4923612;29;20440;-78
2022/10/22 05:46:08;;;;;;;26.53;23.83;;;12.10;99.90;;;;;;4923563;29;20432;-78
2022/10/22 05:48:36;;;;;;;26.60;23.80;;;12.10;99.90;;;;;;4925632;29;20424;-78
2022/10/22 05:51:09;;;;;;;26.47;23.97;;;12.10;99.90;;;;;;4923230;29;20468;-78
2022/10/22 05:53:39;;;;;;;27.47;24.70;;;12.00;99.90;;;;;;4926083;29;20858;-78
2022/10/22 05:56:10;;;;;;;30.03;26.73;;;12.00;99.90;;;;;;4923036;29;20467;-78
2022/10/22 05:58:39;;;;;;;26.33;23.90;;;12.00;99.90;;;;;;4920317;29;20562;-78
2022/10/22 06:01:08;;;;;;;28.27;25.37;;;12.00;99.90;;;;;;4921766;29;20487;-77
2022/10/22 06:03:37;;;;;;;34.43;30.77;;;12.00;99.90;;;;;;4920243;29;20478;-77
2022/10/22 06:06:15;;;;;;;31.10;28.07;;;12.00;99.90;;;;;;4922508;29;20448;-78
2022/10/22 06:08:44;;;;;;;30.53;27.67;;;11.90;99.90;;;;;;4920190;29;21027;-78
2022/10/22 06:11:12;;;;;;;30.87;27.77;;;12.00;99.90;;;;;;4920899;29;20468;-78
2022/10/22 06:13:40;;;;;;;29.30;26.70;;;12.00;99.90;;;;;;4921296;29;20803;-78
2022/10/22 06:16:08;;;;;;;32.70;29.40;;;12.00;99.90;;;;;;4920272;29;20546;-77
2022/10/22 06:18:36;;;;;;;31.33;28.17;;;11.90;99.90;;;;;;4918930;29;20495;-77
2022/10/22 06:21:07;;;;;;;28.30;25.70;;;11.90;99.90;;;;;;4920029;29;20490;-78
2022/10/22 06:23:35;;;;;;;30.77;27.70;;;11.90;99.90;;;;;;4921110;29;20463;-78
2022/10/22 06:26:04;;;;;;;33.97;30.70;;;11.90;99.90;;;;;;4922525;29;20863;-78
2022/10/22 06:28:33;;;;;;;34.80;31.47;;;11.90;99.90;;;;;;4920974;29;20453;-78
2022/10/22 06:31:02;;;;;;;34.27;30.57;;;11.90;99.90;;;;;;4919749;29;20467;-78
2022/10/22 06:33:32;;;;;;;33.87;30.20;;;11.90;99.90;;;;;;4920374;29;20818;-78
2022/10/22 06:36:07;;;;;;;31.37;28.37;;;11.90;99.90;;;;;;4920405;29;20497;-77
2022/10/22 06:38:35;;;;;;;31.10;28.10;;;11.90;99.90;;;;;;4919827;29;20451;-78
2022/10/22 06:41:04;;;;;;;32.03;28.90;;;11.90;99.90;;;;;;4919728;29;20488;-78
2022/10/22 06:43:33;;;;;;;32.47;29.37;;;11.90;99.90;;;;;;4918293;29;20970;-78
2022/10/22 06:46:01;;;;;;;37.27;33.37;;;11.90;99.90;;;;;;4918250;29;20455;-78
2022/10/22 06:48:30;;;;;;;30.70;27.77;;;11.90;99.90;;;;;;4918743;29;20945;-79
2022/10/22 06:51:01;;;;;;;35.00;31.37;;;11.90;99.90;;;;;;4919433;29;20453;-78
2022/10/22 06:53:31;;;;;;;38.70;34.87;;;12.00;99.90;;;;;;4918355;29;20455;-78
2022/10/22 06:55:59;;;;;;;35.93;32.33;;;12.00;99.90;;;;;;4918258;29;20468;-77
2022/10/22 06:58:27;;;;;;;34.07;30.97;;;12.00;99.90;;;;;;4919303;29;20444;-78
2022/10/22 07:01:01;;;;;;;32.53;29.17;;;12.00;99.90;;;;;;4918072;29;20488;-78
2022/10/22 07:03:30;;;;;;;30.57;27.57;;;12.00;99.90;;;;;;4918487;29;20505;-75
2022/10/22 07:06:00;;;;;;;30.53;27.53;;;12.00;99.90;;;;;;4918987;29;20475;-77
2022/10/22 07:08:29;;;;;;;31.37;28.13;;;12.10;99.90;;;;;;4917771;29;20448;-78
2022/10/22 07:11:06;;;;;;;31.23;28.37;;;12.10;99.90;;;;;;4918134;29;20978;-78
2022/10/22 07:13:34;;;;;;;32.53;29.43;;;12.20;99.90;;;;;;4920164;29;20439;-77
2022/10/22 07:16:03;;;;;;;29.57;26.67;;;12.20;99.90;;;;;;4918030;29;20457;-77
2022/10/22 07:18:32;;;;;;;29.50;26.37;;;12.30;99.90;;;;;;4918950;29;21001;-75
2022/10/22 07:21:01;;;;;;;29.23;26.50;;;12.30;99.90;;;;;;4918822;29;20479;-77
2022/10/22 07:23:29;;;;;;;30.20;27.10;;;12.40;99.90;;;;;;4919204;29;20556;-75
2022/10/22 07:26:01;;;;;;;29.97;27.07;;;12.50;99.90;;;;;;4917619;29;20539;-75
2022/10/22 07:28:29;;;;;;;31.00;27.90;;;12.50;99.90;;;;;;4925217;29;20431;-75
2022/10/22 07:30:57;;;;;;;28.30;25.47;;;12.60;99.90;;;;;;4919501;29;20479;-75
2022/10/22 07:33:26;;;;;;;28.17;25.30;;;12.60;99.90;;;;;;4919848;29;20895;-76
2022/10/22 07:35:58;;;;;;;28.63;26.03;;;12.70;99.90;;;;;;4918470;29;20866;-76
2022/10/22 07:38:26;;;;;;;28.50;25.53;;;12.80;99.90;;;;;;4919106;29;20452;-75
2022/10/22 07:40:54;;;;;;;30.17;27.00;;;12.80;99.90;;;;;;4919045;29;20484;-76
2022/10/22 07:43:24;;;;;;;35.90;32.03;;;12.90;99.90;;;;;;4917452;29;20535;-75
2022/10/22 07:45:54;;;;;;;28.10;24.67;;;12.90;99.90;;;;;;4918473;29;20463;-76
2022/10/22 07:48:23;;;;;;;27.60;24.00;;;13.00;99.90;;;;;;4917556;29;20528;-76
2022/10/22 07:50:51;;;;;;;26.80;24.20;;;13.00;99.90;;;;;;4917421;29;20475;-75
2022/10/22 07:53:20;;;;;;;26.70;24.13;;;13.10;99.90;;;;;;4919219;29;20967;-75
2022/10/22 07:55:48;;;;;;;26.63;23.23;;;13.10;99.90;;;;;;4918173;29;20456;-76
2022/10/22 07:58:17;;;;;;;28.57;24.47;;;13.20;99.90;;;;;;4918636;29;20444;-76
2022/10/22 08:00:48;;;;;;;26.97;24.07;;;13.20;99.90;;;;;;4917061;29;20503;-76
2022/10/22 08:03:17;;;;;;;25.90;23.20;;;13.30;99.90;;;;;;4916873;29;20444;-75
2022/10/22 08:05:45;;;;;;;26.47;23.70;;;13.30;99.90;;;;;;4917205;29;20512;-77
2022/10/22 08:08:16;;;;;;;26.23;23.30;;;13.40;99.90;;;;;;4918626;29;20448;-77
2022/10/22 08:10:46;;;;;;;28.17;24.17;;;13.40;99.90;;;;;;4917170;29;20477;-77
2022/10/22 08:13:14;;;;;;;25.30;22.80;;;13.50;99.90;;;;;;4917052;29;20977;-76
2022/10/22 08:15:45;;;;;;;27.37;22.00;;;13.60;99.90;;;;;;4916960;29;20512;-76
2022/10/22 08:18:15;;;;;;;24.50;22.17;;;13.60;99.90;;;;;;4917155;29;20833;-77
2022/10/22 08:20:43;;;;;;;26.73;21.67;;;13.70;99.90;;;;;;4917309;29;20827;-77
2022/10/22 08:23:11;;;;;;;23.13;20.77;;;13.70;99.90;;;;;;4917178;29;20464;-76
2022/10/22 08:25:39;;;;;;;25.63;20.77;;;13.80;99.90;;;;;;4916923;29;20460;-77
2022/10/22 08:28:07;;;;;;;24.13;21.60;;;13.90;99.90;;;;;;4918303;29;20547;-77
2022/10/22 08:30:37;;;;;;;24.90;20.27;;;14.00;99.90;;;;;;4916575;29;20468;-77
2022/10/22 08:33:06;;;;;;;22.67;20.27;;;14.00;99.90;;;;;;4917638;29;20965;-76
2022/10/22 08:35:35;;;;;;;22.90;19.17;;;14.00;99.90;;;;;;4918267;29;20953;-77
2022/10/22 08:38:03;;;;;;;23.47;20.93;;;14.10;99.90;;;;;;4916680;29;20463;-76
2022/10/22 08:40:34;;;;;;;22.20;19.17;;;14.20;99.90;;;;;;4917804;29;20464;-76
2022/10/22 08:43:34;;;;;;;24.53;18.20;;;14.30;99.90;;;;;;4917851;29;20458;-76
2022/10/22 08:46:17;;;;;;;22.50;18.90;;;14.40;99.90;;;;;;4917228;29;20552;-77
2022/10/22 08:48:48;;;;;;;19.57;17.47;;;14.40;99.90;;;;;;4916643;29;20930;-76
2022/10/22 08:51:21;;;;;;;20.30;18.10;;;14.50;99.90;;;;;;4917384;29;20468;-76
2022/10/22 08:54:12;;;;;;;19.33;16.37;;;14.60;99.90;;;;;;4916944;29;20452;-76
2022/10/22 08:56:44;;;;;;;18.37;15.97;;;14.60;99.90;;;;;;4918026;29;20433;-77
2022/10/22 08:59:16;;;;;;;18.57;14.80;;;14.70;99.90;;;;;;4916987;29;20812;-77
2022/10/22 09:01:47;;;;;;;16.27;14.57;;;14.80;99.90;;;;;;4917837;29;20512;-76
2022/10/22 09:04:24;;;;;;;16.77;15.07;;;14.80;99.90;;;;;;4916708;29;20535;-77
2022/10/22 09:06:57;;;;;;;16.47;14.23;;;14.90;99.90;;;;;;4917762;29;20524;-77
2022/10/22 09:09:30;;;;;;;17.93;16.13;;;14.90;99.90;;;;;;4916471;29;20452;-77
2022/10/22 09:12:00;;;;;;;13.77;12.40;;;14.90;99.90;;;;;;4916418;29;20473;-77
2022/10/22 09:14:28;;;;;;;16.10;13.50;;;15.00;99.90;;;;;;4918020;29;20511;-77
2022/10/22 09:17:12;;;;;;;16.10;13.30;;;15.10;99.90;;;;;;4916728;29;20452;-77
2022/10/22 09:19:49;;;;;;;13.57;12.13;;;15.10;99.90;;;;;;4916118;29;20444;-78
2022/10/22 09:22:28;;;;;;;13.77;12.20;;;15.20;99.90;;;;;;4915923;29;20494;-77
2022/10/22 09:25:01;;;;;;;12.53;11.30;;;15.30;99.90;;;;;;4917335;29;20915;-78
2022/10/22 09:27:31;;;;;;;18.20;12.30;;;15.40;99.90;;;;;;4917680;29;20429;-77
2022/10/22 09:30:04;;;;;;;12.80;11.50;;;15.50;99.90;;;;;;4918001;29;20442;-77
2022/10/22 09:32:32;;;;;;;13.23;11.00;;;15.50;99.90;;;;;;4919998;29;20448;-77
2022/10/22 09:35:01;;;;;;;13.23;10.63;;;15.60;99.90;;;;;;4921658;29;20496;-77
2022/10/22 09:37:31;;;;;;;10.77;9.57;;;15.70;99.90;;;;;;4919798;29;20483;-76
2022/10/22 09:40:04;;;;;;;14.03;11.07;;;15.70;99.90;;;;;;4919725;29;21113;-77
2022/10/22 09:42:33;;;;;;;14.23;10.40;;;15.80;99.90;;;;;;4919697;29;20468;-77
2022/10/22 09:45:01;;;;;;;11.73;10.50;;;15.90;99.90;;;;;;4921208;29;20803;-77
2022/10/22 09:47:33;;;;;;;14.33;10.87;;;15.90;99.90;;;;;;4920920;29;20444;-76
2022/10/22 09:50:21;;;;;;;12.50;10.60;;;16.00;99.90;;;;;;4921444;29;20471;-76
2022/10/22 09:52:59;;;;;;;14.20;9.70;;;16.00;99.90;;;;;;4919519;29;20451;-76
2022/10/22 09:55:27;;;;;;;11.27;10.03;;;16.10;99.90;;;;;;4920575;29;20823;-76
2022/10/22 09:57:57;;;;;;;15.80;10.37;;;16.10;99.90;;;;;;4920679;29;20448;-77
2022/10/22 10:00:27;;;;;;;12.33;9.77;;;16.20;99.90;;;;;;4920764;29;20468;-77
2022/10/22 10:02:57;;;;;;;11.67;10.37;;;16.20;99.90;;;;;;4919241;29;20901;-76
2022/10/22 10:05:27;;;;;;;13.07;9.57;;;16.30;99.90;;;;;;4919643;29;20450;-76
2022/10/22 10:07:57;;;;;;;13.13;10.40;;;16.30;99.90;;;;;;4920850;29;20834;-76
2022/10/22 10:10:37;;;;;;;10.50;9.40;;;16.40;99.90;;;;;;4920218;29;20452;-77
2022/10/22 10:13:20;;;;;;;13.80;10.03;;;16.40;99.90;;;;;;4920379;29;20852;-78
2022/10/22 10:15:55;;;;;;;11.20;9.00;;;16.50;99.90;;;;;;4919059;29;20783;-78
2022/10/22 10:18:35;;;;;;;20.50;10.23;;;16.50;99.90;;;;;;4920002;29;20459;-77
2022/10/22 10:21:14;;;;;;;9.43;8.47;;;16.60;99.90;;;;;;4918737;29;20447;-77
2022/10/22 10:23:54;;;;;;;14.47;10.17;;;16.60;99.90;;;;;;4918664;29;20451;-77
2022/10/22 10:26:28;;;;;;;11.70;9.43;;;16.60;99.90;;;;;;4920134;29;20447;-77
2022/10/22 10:29:06;;;;;;;9.50;8.57;;;16.70;99.90;;;;;;4920501;29;20429;-77
2022/10/22 10:32:00;;;;;;;10.77;8.27;;;16.70;99.90;;;;;;4918440;29;20449;-77
2022/10/22 10:34:43;;;;;;;9.00;7.90;;;16.80;99.90;;;;;;4918715;29;20451;-77
2022/10/22 10:37:19;;;;;;;11.77;8.40;;;16.80;99.90;;;;;;4919605;29;20936;-77
2022/10/22 10:40:03;;;;;;;10.70;8.03;;;16.90;99.90;;;;;;4918195;29;20425;-77
2022/10/22 10:42:37;;;;;;;10.10;7.50;;;16.90;99.90;;;;;;4917159;29;20552;-77
2022/10/22 10:45:17;;;;;;;12.67;7.63;;;17.00;99.90;;;;;;4922979;29;20415;-77
2022/10/22 10:48:21;;;;;;;8.20;6.90;;;17.00;99.90;;;;;;4920309;29;20434;-77
2022/10/22 10:50:59;;;;;;;11.10;7.20;;;17.10;99.90;;;;;;4918912;29;20465;-77
2022/10/22 10:53:38;;;;;;;11.20;6.27;;;17.10;99.90;;;;;;4919031;29;20446;-77
2022/10/22 10:56:23;;;;;;;12.03;6.77;;;17.10;99.90;;;;;;4922179;29;20432;-77
2022/10/22 10:59:00;;;;;;;9.60;6.80;;;17.20;99.90;;;;;;4918181;29;20448;-77
2022/10/22 11:01:40;;;;;;;8.13;6.00;;;17.30;99.90;;;;;;4919432;29;20455;-77
2022/10/22 11:04:30;;;;;;;7.53;6.73;;;17.30;99.90;;;;;;4919711;29;20421;-77
2022/10/22 11:07:01;;;;;;;7.97;6.27;;;17.40;99.90;;;;;;4918103;29;20415;-77
2022/10/22 11:09:46;;;;;;;10.00;6.80;;;17.50;99.90;;;;;;4918039;29;20452;-77
2022/10/22 11:12:21;;;;;;;10.90;6.30;;;17.60;99.90;;;;;;4923436;29;20399;-77
2022/10/22 11:14:59;;;;;;;10.37;6.13;;;17.70;99.90;;;;;;4923115;29;20448;-77
2022/10/22 11:17:36;;;;;;;9.43;6.23;;;17.70;99.90;;;;;;4923822;29;20395;-77
2022/10/22 11:20:13;;;;;;;9.43;6.57;;;17.80;99.90;;;;;;4921422;29;20494;-77
2022/10/22 11:22:45;;;;;;;7.50;5.63;;;17.80;99.90;;;;;;4920323;29;20445;-77
2022/10/22 11:25:39;;;;;;;14.17;5.87;;;17.80;99.90;;;;;;4919670;29;20412;-77
2022/10/22 11:28:14;;;;;;;8.50;5.50;;;17.80;99.90;;;;;;4918265;29;20517;-77
2022/10/22 11:30:45;;;;;;;9.17;5.10;;;17.70;99.90;;;;;;4921270;29;20430;-77
2022/10/22 11:33:21;;;;;;;8.53;5.47;;;17.80;99.90;;;;;;4923513;29;20411;-77
2022/10/22 11:35:51;;;;;;;7.00;5.37;;;17.80;99.90;;;;;;4922066;29;20486;-77
2022/10/22 11:38:24;;;;;;;12.83;5.50;;;17.70;99.90;;;;;;4922247;29;20853;-78
2022/10/22 11:40:58;;;;;;;10.87;5.83;;;17.70;99.90;;;;;;4923252;29;20455;-78
2022/10/22 11:43:31;;;;;;;6.33;4.90;;;17.80;99.90;;;;;;4924273;29;20460;-77
2022/10/22 11:46:09;;;;;;;9.90;5.00;;;17.80;99.90;;;;;;4924013;29;20437;-77
2022/10/22 11:48:38;;;;;;;7.40;4.57;;;17.90;99.90;;;;;;4924444;29;20426;-78
2022/10/22 11:51:36;;;;;;;14.13;4.80;;;17.90;99.90;;;;;;4923982;29;20542;-78
2022/10/22 11:54:30;;;;;;;7.43;4.20;;;17.90;99.90;;;;;;4922009;29;20455;-77
2022/10/22 11:57:17;;;;;;;9.37;5.03;;;17.90;99.90;;;;;;4923449;29;20411;-77
2022/10/22 11:59:51;;;;;;;10.43;4.87;;;17.90;99.90;;;;;;4918918;29;20434;-77
2022/10/22 12:02:39;;;;;;;8.00;5.60;;;17.90;99.90;;;;;;4919172;29;20447;-76
2022/10/22 12:05:35;;;;;;;9.37;4.53;;;18.00;99.90;;;;;;4919523;29;20440;-77
2022/10/22 12:08:16;;;;;;;9.63;5.63;;;18.00;99.90;;;;;;4919071;29;20415;-77
2022/10/22 12:10:58;;;;;;;7.27;4.70;;;18.00;99.90;;;;;;4918165;29;20470;-77
2022/10/22 12:13:28;;;;;;;8.80;4.40;;;18.00;99.90;;;;;;4917075;29;20445;-75
2022/10/22 12:16:01;;;;;;;13.63;5.30;;;18.10;99.90;;;;;;4918802;29;20835;-75
2022/10/22 12:18:38;;;;;;;9.87;6.03;;;18.10;99.90;;;;;;4920828;29;20463;-75
2022/10/22 12:21:06;;;;;;;8.60;4.77;;;18.10;99.90;;;;;;4920373;29;20458;-74
2022/10/22 12:23:35;;;;;;;9.20;4.60;;;18.10;99.90;;;;;;4920486;29;20478;-75
2022/10/22 12:26:05;;;;;;;6.30;5.10;;;18.10;99.90;;;;;;4920747;29;20806;-75
2022/10/22 12:28:40;;;;;;;7.37;4.30;;;18.10;99.90;;;;;;4918426;29;20427;-75
2022/10/22 12:31:16;;;;;;;8.67;4.50;;;18.20;99.90;;;;;;4917849;29;20443;-76
2022/10/22 12:33:45;;;;;;;11.87;5.03;;;18.20;99.90;;;;;;4917919;29;20409;-76
2022/10/22 12:36:17;;;;;;;7.00;4.90;;;18.10;99.90;;;;;;4917465;29;20448;-76
2022/10/22 12:38:47;;;;;;;13.03;5.67;;;18.10;99.90;;;;;;4917683;29;20507;-76
2022/10/22 12:41:15;;;;;;;8.60;4.47;;;18.20;99.90;;;;;;4917422;29;20959;-76
2022/10/22 12:43:44;;;;;;;8.77;5.03;;;18.20;99.90;;;;;;4916122;29;20458;-76
2022/10/22 12:46:15;;;;;;;8.63;5.10;;;18.20;99.90;;;;;;4916177;29;20973;-76
2022/10/22 12:48:45;;;;;;;9.13;4.97;;;18.20;99.90;;;;;;4917820;29;20433;-75
2022/10/22 12:51:17;;;;;;;7.63;4.50;;;18.20;99.90;;;;;;4917743;29;20484;-76
2022/10/22 12:53:48;;;;;;;10.40;5.00;;;18.20;99.90;;;;;;4916424;29;20843;-76
2022/10/22 12:56:21;;;;;;;8.07;5.57;;;18.10;99.90;;;;;;4917665;29;20423;-76